createdAt,value
2022-12-31T00:01:50.203Z,82.99
2022-12-31T00:05:52.616Z,84.40
2022-12-31T00:09:51.497Z,84.04
2022-12-31T00:13:52.496Z,82.69
2022-12-31T00:17:51.439Z,82.79
2022-12-31T00:21:52.899Z,83.08
2022-12-31T00:25:51.679Z,81.88
2022-12-31T00:29:51.101Z,79.70
2022-12-31T00:33:51.018Z,79.40
2022-12-31T00:37:53.045Z,80.24
2022-12-31T00:41:52.424Z,82.22
2022-12-31T00:45:51.946Z,83.88
2022-12-31T00:49:51.309Z,86.74
2022-12-31T00:53:52.723Z,86.50
2022-12-31T00:57:51.541Z,86.24
2022-12-31T01:01:51.478Z,85.72
2022-12-31T01:05:50.434Z,85.84
2022-12-31T01:09:53.454Z,85.74
2022-12-31T01:13:53.838Z,85.64
2022-12-31T01:17:53.210Z,86.07
2022-12-31T01:21:52.701Z,90.61
2022-12-31T01:25:53.631Z,90.65
2022-12-31T01:29:52.964Z,89.28
2022-12-31T01:33:52.606Z,89.20
2022-12-31T01:37:52.070Z,88.88
2022-12-31T01:41:52.942Z,87.51
2022-12-31T01:45:54.551Z,86.83
2022-12-31T01:49:55.404Z,86.71
2022-12-31T01:53:54.958Z,86.56
2022-12-31T01:57:59.688Z,85.80
2022-12-31T02:01:59.228Z,85.40
2022-12-31T02:06:01.602Z,86.44
2022-12-31T02:10:00.755Z,89.08
2022-12-31T02:14:04.296Z,91.38
2022-12-31T02:18:07.909Z,92.73
2022-12-31T02:22:11.569Z,92.81
2022-12-31T02:26:31.887Z,92.25
2022-12-31T02:30:34.107Z,91.59
2022-12-31T02:34:34.594Z,89.35
2022-12-31T02:38:35.533Z,87.24
2022-12-31T02:42:34.813Z,86.03
2022-12-31T02:46:42.233Z,85.83
2022-12-31T02:50:55.098Z,84.92
2022-12-31T02:55:00.289Z,84.87
2022-12-31T02:59:19.894Z,86.64
2022-12-31T03:03:22.240Z,88.45
2022-12-31T03:07:23.528Z,87.64
2022-12-31T03:11:35.592Z,88.90
2022-12-31T03:15:35.476Z,91.46
2022-12-31T03:19:59.529Z,92.38
2022-12-31T03:24:15.132Z,90.71
2022-12-31T03:28:15.532Z,88.64
2022-12-31T03:32:15.235Z,88.10
2022-12-31T03:36:16.848Z,88.07
2022-12-31T03:40:16.806Z,89.27
2022-12-31T03:44:16.113Z,89.63
2022-12-31T03:48:15.457Z,92.26
2022-12-31T03:52:16.436Z,93.62
2022-12-31T03:56:15.834Z,91.84
2022-12-31T04:00:17.147Z,92.11
2022-12-31T04:04:16.443Z,90.81
2022-12-31T04:08:17.921Z,89.45
2022-12-31T04:12:17.372Z,88.19
2022-12-31T04:16:16.749Z,86.54
2022-12-31T04:20:16.470Z,87.02
2022-12-31T04:24:18.779Z,88.65
2022-12-31T04:28:18.128Z,90.50
2022-12-31T04:32:17.653Z,90.16
2022-12-31T04:36:17.058Z,89.74
2022-12-31T04:40:18.663Z,90.01
2022-12-31T04:44:18.228Z,88.09
2022-12-31T04:48:17.493Z,87.65
2022-12-31T04:52:16.348Z,87.03
2022-12-31T04:56:17.911Z,86.03
2022-12-31T05:00:17.470Z,85.39
2022-12-31T05:04:16.774Z,85.97
2022-12-31T05:08:16.140Z,85.38
2022-12-31T05:12:17.649Z,85.45
2022-12-31T05:16:17.096Z,83.59
2022-12-31T05:20:16.452Z,82.96
2022-12-31T05:24:15.812Z,83.95
2022-12-31T05:28:17.443Z,83.16
2022-12-31T05:32:16.776Z,82.99
2022-12-31T05:36:16.671Z,84.39
2022-12-31T05:40:16.082Z,84.88
2022-12-31T05:44:17.152Z,85.00
2022-12-31T05:48:16.530Z,85.77
2022-12-31T05:52:16.059Z,84.70
2022-12-31T05:56:16.197Z,84.73
2022-12-31T06:00:18.472Z,85.59
2022-12-31T06:04:18.944Z,86.78
2022-12-31T06:08:17.845Z,87.99
2022-12-31T06:12:17.201Z,87.38
2022-12-31T06:16:18.672Z,86.33
2022-12-31T06:20:18.105Z,85.64
2022-12-31T06:24:19.013Z,85.48
2022-12-31T06:28:20.566Z,84.63
2022-12-31T06:32:22.320Z,86.67
2022-12-31T06:36:22.043Z,87.66
2022-12-31T06:40:21.583Z,85.84
2022-12-31T06:44:22.753Z,84.00
2022-12-31T06:48:26.093Z,80.52
2022-12-31T06:52:34.389Z,79.11
2022-12-31T06:56:35.081Z,77.80
2022-12-31T07:00:34.732Z,77.11
2022-12-31T07:04:46.254Z,78.05
2022-12-31T07:08:51.667Z,76.16
2022-12-31T07:13:06.629Z,74.53
2022-12-31T07:17:13.301Z,71.25
2022-12-31T07:21:16.761Z,71.35
2022-12-31T07:25:19.168Z,72.76
2022-12-31T07:29:23.428Z,71.74
2022-12-31T07:33:37.036Z,69.12
2022-12-31T07:37:44.987Z,67.54
2022-12-31T07:41:49.514Z,66.12
2022-12-31T07:45:52.252Z,64.73
2022-12-31T07:49:52.361Z,63.54
2022-12-31T07:53:54.056Z,63.21
2022-12-31T07:57:57.604Z,64.21
2022-12-31T08:01:59.850Z,63.36
2022-12-31T08:06:05.234Z,64.62
2022-12-31T08:10:15.694Z,67.60
2022-12-31T08:14:17.258Z,68.21
2022-12-31T08:18:17.411Z,66.23
2022-12-31T08:22:41.145Z,67.55
2022-12-31T08:26:53.213Z,69.63
2022-12-31T08:30:56.742Z,70.84
2022-12-31T08:35:00.917Z,71.72
2022-12-31T08:39:03.457Z,72.04
2022-12-31T08:43:16.379Z,73.19
2022-12-31T08:47:23.628Z,72.69
2022-12-31T08:51:25.111Z,73.79
2022-12-31T08:55:24.830Z,73.16
2022-12-31T08:59:38.435Z,73.19
2022-12-31T09:03:44.831Z,71.40
2022-12-31T09:07:49.719Z,70.38
2022-12-31T09:11:54.575Z,69.86
2022-12-31T09:16:00.829Z,69.19
2022-12-31T09:20:00.895Z,67.29
2022-12-31T09:24:05.942Z,65.57
2022-12-31T09:28:13.569Z,65.22
2022-12-31T09:32:28.726Z,64.40
2022-12-31T09:36:50.582Z,64.78
2022-12-31T09:41:07.313Z,64.17
2022-12-31T09:45:21.592Z,63.58
2022-12-31T09:49:40.286Z,63.09
2022-12-31T09:53:58.351Z,62.98
2022-12-31T09:58:11.596Z,63.67
2022-12-31T10:02:18.865Z,63.09
2022-12-31T10:06:23.568Z,61.95
2022-12-31T10:10:25.721Z,61.95
2022-12-31T10:14:32.688Z,61.35
2022-12-31T10:18:48.701Z,61.76
2022-12-31T10:23:01.488Z,61.77
2022-12-31T10:27:16.139Z,62.75
2022-12-31T10:31:33.859Z,63.08
2022-12-31T10:35:38.072Z,63.52
2022-12-31T10:39:45.880Z,63.83
2022-12-31T10:44:02.163Z,63.34
2022-12-31T10:48:16.279Z,62.26
2022-12-31T10:52:28.108Z,62.71
2022-12-31T10:56:54.270Z,62.71
2022-12-31T11:01:00.713Z,62.39
2022-12-31T11:05:21.247Z,62.18
2022-12-31T11:09:45.571Z,62.92
2022-12-31T11:14:05.763Z,62.13
2022-12-31T11:18:15.090Z,61.57
2022-12-31T11:22:25.887Z,61.22
2022-12-31T11:26:31.535Z,60.30
2022-12-31T11:30:34.754Z,61.00
2022-12-31T11:34:47.703Z,60.05
2022-12-31T11:38:52.864Z,59.76
2022-12-31T11:42:58.308Z,59.78
2022-12-31T11:47:05.057Z,58.84
2022-12-31T11:51:17.976Z,58.25
2022-12-31T11:55:25.035Z,58.30
2022-12-31T11:59:25.060Z,57.98
2022-12-31T12:03:25.110Z,58.48
2022-12-31T12:07:27.414Z,57.97
2022-12-31T12:11:27.983Z,58.13
2022-12-31T12:15:29.405Z,57.74
2022-12-31T12:19:29.198Z,56.93
2022-12-31T12:23:32.464Z,57.65
2022-12-31T12:27:32.785Z,57.71
2022-12-31T12:31:33.937Z,57.66
2022-12-31T12:35:35.600Z,57.20
2022-12-31T12:39:40.503Z,57.55
2022-12-31T12:43:41.767Z,58.27
2022-12-31T12:47:43.131Z,58.51
2022-12-31T12:51:48.187Z,59.50
2022-12-31T12:55:56.230Z,60.94
2022-12-31T13:00:04.954Z,61.78
2022-12-31T13:04:35.287Z,61.29
2022-12-31T13:08:56.795Z,61.03
2022-12-31T13:13:25.400Z,61.51
2022-12-31T13:17:49.801Z,61.21
2022-12-31T13:22:04.712Z,60.19
2022-12-31T13:26:11.088Z,60.13
2022-12-31T13:31:19.039Z,60.10
2022-12-31T13:35:26.525Z,60.28
2022-12-31T13:39:29.560Z,59.61
2022-12-31T13:43:35.034Z,59.95
2022-12-31T13:47:39.298Z,60.33
2022-12-31T13:51:43.239Z,60.21
2022-12-31T13:55:43.740Z,60.06
2022-12-31T13:59:46.410Z,60.35
2022-12-31T14:03:54.240Z,61.12
2022-12-31T14:07:55.947Z,61.52
2022-12-31T14:12:25.939Z,62.17
2022-12-31T14:16:50.673Z,62.56
2022-12-31T14:21:02.654Z,62.54
2022-12-31T14:25:03.109Z,63.07
2022-12-31T14:29:07.030Z,63.88
2022-12-31T14:33:20.557Z,64.51
2022-12-31T14:37:29.305Z,65.16
2022-12-31T14:41:42.130Z,65.44
2022-12-31T14:45:48.261Z,65.57
2022-12-31T14:49:55.582Z,65.73
2022-12-31T14:53:57.444Z,66.05
2022-12-31T14:58:27.125Z,66.51
2022-12-31T15:02:28.903Z,66.89
2022-12-31T15:06:36.365Z,66.94
2022-12-31T15:10:43.490Z,67.20
2022-12-31T15:14:58.919Z,67.51
2022-12-31T15:19:11.548Z,68.04
2022-12-31T15:23:25.735Z,68.42
2022-12-31T15:27:33.262Z,68.86
2022-12-31T15:31:34.338Z,69.49
2022-12-31T15:35:47.892Z,69.38
2022-12-31T15:39:46.938Z,69.44
2022-12-31T15:43:50.474Z,69.46
2022-12-31T15:47:56.939Z,69.59
2022-12-31T15:52:01.694Z,70.09
2022-12-31T15:56:02.109Z,70.84
2022-12-31T16:00:06.739Z,71.77
2022-12-31T16:04:09.587Z,73.35
2022-12-31T16:08:19.343Z,74.25
2022-12-31T16:12:21.853Z,74.22
2022-12-31T16:16:25.455Z,73.75
2022-12-31T16:20:26.399Z,73.63
2022-12-31T16:24:29.176Z,73.39
2022-12-31T16:28:30.559Z,72.91
2022-12-31T16:32:35.974Z,72.88
2022-12-31T16:36:35.576Z,72.92
2022-12-31T16:40:34.927Z,72.38
2022-12-31T16:44:34.226Z,72.28
2022-12-31T16:48:35.739Z,72.66
2022-12-31T16:52:37.505Z,72.61
2022-12-31T16:56:40.694Z,72.33
2022-12-31T17:00:40.295Z,72.11
2022-12-31T17:04:47.021Z,71.78
2022-12-31T17:09:05.279Z,71.61
2022-12-31T17:17:26.224Z,70.37
2022-12-31T17:21:40.238Z,70.00
2022-12-31T17:25:39.822Z,69.63
2022-12-31T17:29:39.096Z,68.98
2022-12-31T17:33:39.025Z,69.83
2022-12-31T17:37:40.569Z,71.00
2022-12-31T17:41:40.013Z,71.22
2022-12-31T17:45:40.060Z,71.16
2022-12-31T17:49:40.168Z,70.92
2022-12-31T17:53:44.745Z,70.44
2022-12-31T17:57:50.246Z,70.54
2022-12-31T18:01:49.879Z,71.15
2022-12-31T18:05:49.278Z,70.67
2022-12-31T18:09:50.753Z,71.65
2022-12-31T18:13:49.647Z,73.01
2022-12-31T18:17:49.402Z,74.75
2022-12-31T18:21:48.820Z,75.04
2022-12-31T18:25:50.239Z,74.50
2022-12-31T18:29:49.039Z,74.49
2022-12-31T18:33:48.857Z,74.92
2022-12-31T18:37:48.507Z,76.28
2022-12-31T18:41:50.716Z,78.94
2022-12-31T18:45:50.430Z,80.84
2022-12-31T18:49:49.858Z,80.58
2022-12-31T18:53:49.519Z,79.77
2022-12-31T18:57:50.955Z,79.64
2022-12-31T19:01:52.369Z,79.46
2022-12-31T19:05:52.523Z,79.33
2022-12-31T19:09:58.126Z,78.98
2022-12-31T19:13:59.992Z,78.10
2022-12-31T19:17:58.824Z,77.27
2022-12-31T19:22:00.133Z,76.25
2022-12-31T19:25:59.505Z,76.17
2022-12-31T19:30:01.034Z,76.31
2022-12-31T19:33:59.810Z,75.57
2022-12-31T19:37:59.457Z,74.51
2022-12-31T19:41:59.817Z,73.41
2022-12-31T19:46:04.839Z,72.78
2022-12-31T19:50:04.129Z,72.80
2022-12-31T19:54:02.861Z,72.32
2022-12-31T19:58:02.116Z,72.33
2022-12-31T20:02:03.538Z,73.00
2022-12-31T20:06:03.775Z,74.08
2022-12-31T20:10:03.298Z,77.77
2022-12-31T20:14:02.621Z,78.67
2022-12-31T20:18:04.002Z,79.33
2022-12-31T20:22:03.254Z,79.03
2022-12-31T20:26:02.969Z,78.79
2022-12-31T20:30:02.367Z,78.28
2022-12-31T20:34:03.811Z,76.85
2022-12-31T20:38:03.108Z,75.80
2022-12-31T20:42:02.363Z,73.93
2022-12-31T20:46:02.009Z,74.21
2022-12-31T20:50:12.262Z,74.99
2022-12-31T20:54:12.484Z,75.06
2022-12-31T20:58:11.707Z,75.20
2022-12-31T21:02:26.436Z,74.62
2022-12-31T21:06:36.084Z,74.22
2022-12-31T21:10:35.620Z,75.80
2022-12-31T21:14:38.506Z,75.94
2022-12-31T21:18:40.011Z,76.43
2022-12-31T21:22:41.590Z,76.13
2022-12-31T21:26:40.977Z,75.34
2022-12-31T21:30:40.876Z,78.53
2022-12-31T21:34:39.685Z,81.13
2022-12-31T21:38:41.261Z,80.30
2022-12-31T21:42:40.511Z,78.86
2022-12-31T21:46:54.625Z,78.08
2022-12-31T21:51:06.825Z,77.39
2022-12-31T21:55:25.103Z,77.29
2022-12-31T21:59:46.356Z,76.76
2022-12-31T22:03:46.486Z,76.47
2022-12-31T22:07:46.190Z,76.23
2022-12-31T22:11:48.125Z,75.87
2022-12-31T22:15:50.556Z,78.14
2022-12-31T22:20:25.251Z,79.80
2022-12-31T22:24:12.135Z,79.97
2022-12-31T22:28:40.771Z,79.78
2022-12-31T22:32:33.734Z,79.51
2022-12-31T22:36:33.582Z,78.89
2022-12-31T22:40:33.404Z,78.62
2022-12-31T22:44:35.208Z,75.56
2022-12-31T22:48:34.398Z,77.17
2022-12-31T22:52:34.133Z,78.36
2022-12-31T22:56:33.883Z,78.72
2022-12-31T23:00:39.640Z,78.38
2022-12-31T23:04:39.618Z,77.48
2022-12-31T23:08:39.068Z,77.02
2022-12-31T23:12:38.755Z,77.25
2022-12-31T23:16:57.052Z,76.88
2022-12-31T23:21:13.065Z,76.92
2022-12-31T23:25:12.285Z,77.24
2022-12-31T23:29:12.080Z,77.01
2022-12-31T23:33:15.513Z,77.07
2022-12-31T23:37:15.286Z,77.46
2022-12-31T23:41:14.357Z,77.04
2022-12-31T23:45:14.820Z,76.26
2022-12-31T23:49:16.315Z,75.53
2022-12-31T23:53:15.891Z,75.92
2022-12-31T23:57:14.735Z,76.79
